createdAt,value
2019-01-26T00:01:54.043Z,97074.68
2019-01-26T00:03:55.638Z,97073.52
2019-01-26T00:05:57.233Z,97074.00
2019-01-26T00:07:58.829Z,97073.59
2019-01-26T00:10:00.466Z,97072.83
2019-01-26T00:12:02.056Z,97069.88
2019-01-26T00:14:03.669Z,97072.16
2019-01-26T00:16:05.275Z,97067.59
2019-01-26T00:18:06.913Z,97035.62
2019-01-26T00:20:08.525Z,97068.05
2019-01-26T00:22:10.121Z,97066.78
2019-01-26T00:24:11.756Z,97067.70
2019-01-26T00:26:13.361Z,97066.85
2019-01-26T00:28:14.954Z,97072.77
2019-01-26T00:30:16.540Z,97062.15
2019-01-26T00:32:18.123Z,97059.97
2019-01-26T00:34:19.718Z,97057.83
2019-01-26T00:36:21.327Z,97053.23
2019-01-26T00:38:22.926Z,97050.28
2019-01-26T00:40:24.556Z,97045.60
2019-01-26T00:42:26.173Z,97036.84
2019-01-26T00:44:27.760Z,97031.86
2019-01-26T00:46:29.393Z,97019.22
2019-01-26T00:48:30.990Z,97027.34
2019-01-26T00:50:32.575Z,97029.51
2019-01-26T00:52:34.188Z,97020.16
2019-01-26T00:54:35.772Z,97021.48
2019-01-26T00:56:37.353Z,97016.07
2019-01-26T00:58:38.978Z,97002.90
2019-01-26T01:00:40.602Z,97006.73
2019-01-26T01:02:42.201Z,97008.52
2019-01-26T01:04:43.835Z,97001.70
2019-01-26T01:06:45.443Z,96997.56
2019-01-26T01:08:47.055Z,96984.47
2019-01-26T01:10:48.700Z,96986.59
2019-01-26T01:12:50.301Z,96987.16
2019-01-26T01:14:51.898Z,96989.63
2019-01-26T01:16:53.561Z,96976.24
2019-01-26T01:18:55.322Z,96974.00
2019-01-26T01:20:56.968Z,96973.05
2019-01-26T01:22:58.596Z,96968.20
2019-01-26T01:25:00.195Z,96967.84
2019-01-26T01:27:01.844Z,96964.81
2019-01-26T01:29:03.441Z,96958.91
2019-01-26T01:31:05.055Z,96952.74
2019-01-26T01:33:06.678Z,96941.58
2019-01-26T01:35:08.315Z,96942.89
2019-01-26T01:37:09.924Z,96928.56
2019-01-26T01:39:11.520Z,96920.99
2019-01-26T01:41:13.152Z,96907.54
2019-01-26T01:43:14.742Z,96899.19
2019-01-26T01:45:16.328Z,96899.23
2019-01-26T01:47:17.940Z,96894.14
2019-01-26T01:49:19.548Z,96878.59
2019-01-26T01:51:21.187Z,96873.45
2019-01-26T01:53:22.800Z,96869.86
2019-01-26T01:55:24.407Z,96854.00
2019-01-26T01:57:26.012Z,96841.64
2019-01-26T01:59:27.611Z,96868.44
2019-01-26T02:01:29.210Z,96839.52
2019-01-26T02:03:30.811Z,96825.48
2019-01-26T02:05:32.459Z,96823.27
2019-01-26T02:07:34.067Z,96828.03
2019-01-26T02:09:35.666Z,96823.70
2019-01-26T02:11:37.301Z,96815.61
2019-01-26T02:13:38.897Z,96821.70
2019-01-26T02:15:40.488Z,96817.74
2019-01-26T02:17:42.096Z,96811.27
2019-01-26T02:19:43.698Z,96809.98
2019-01-26T02:21:45.343Z,96801.38
2019-01-26T02:23:46.961Z,96808.42
2019-01-26T02:25:48.560Z,96803.03
2019-01-26T02:27:50.205Z,96803.51
2019-01-26T02:29:51.801Z,96790.13
2019-01-26T02:31:53.395Z,96789.63
2019-01-26T02:33:55.019Z,96791.20
2019-01-26T02:35:56.641Z,96787.36
2019-01-26T02:37:58.243Z,96783.87
2019-01-26T02:39:59.843Z,96779.03
2019-01-26T02:42:01.434Z,96770.48
2019-01-26T02:44:03.031Z,96774.06
2019-01-26T02:46:04.626Z,96761.52
2019-01-26T02:48:06.514Z,96752.72
2019-01-26T02:50:08.120Z,96743.95
2019-01-26T02:52:09.718Z,96742.26
2019-01-26T02:54:11.324Z,96741.16
2019-01-26T02:56:12.985Z,96737.89
2019-01-26T02:58:14.592Z,96734.42
2019-01-26T03:00:16.195Z,96732.46
2019-01-26T03:02:17.804Z,96731.20
2019-01-26T03:04:19.421Z,96729.98
2019-01-26T03:06:21.032Z,96732.95
2019-01-26T03:08:22.643Z,96727.53
2019-01-26T03:10:24.294Z,96714.56
2019-01-26T03:12:25.900Z,96711.20
2019-01-26T03:14:27.503Z,96709.53
2019-01-26T03:16:29.138Z,96705.72
2019-01-26T03:18:30.734Z,96704.67
2019-01-26T03:20:32.339Z,96704.17
2019-01-26T03:22:33.933Z,96699.09
2019-01-26T03:24:35.544Z,96700.67
2019-01-26T03:26:37.166Z,96703.25
2019-01-26T03:28:38.762Z,96687.08
2019-01-26T03:30:40.370Z,96675.58
2019-01-26T03:32:41.961Z,96686.66
2019-01-26T03:34:43.584Z,96688.05
2019-01-26T03:36:45.181Z,96687.55
2019-01-26T03:38:46.779Z,96680.02
2019-01-26T03:40:48.367Z,96674.05
2019-01-26T03:42:50.002Z,96666.06
2019-01-26T03:44:51.613Z,96659.93
2019-01-26T03:46:53.200Z,96652.84
2019-01-26T03:48:54.839Z,96654.41
2019-01-26T03:50:56.439Z,96657.40
2019-01-26T03:52:58.037Z,96642.23
2019-01-26T03:54:59.634Z,96654.05
2019-01-26T03:57:01.224Z,96660.84
2019-01-26T03:59:02.807Z,96652.88
2019-01-26T04:01:04.414Z,96649.07
2019-01-26T04:03:06.053Z,96644.18
2019-01-26T04:05:07.650Z,96628.62
2019-01-26T04:07:09.261Z,96620.91
2019-01-26T04:09:10.858Z,96625.52
2019-01-26T04:11:12.460Z,96619.18
2019-01-26T04:13:14.065Z,96597.66
2019-01-26T04:15:15.684Z,96604.10
2019-01-26T04:17:21.754Z,96598.32
2019-01-26T04:19:18.970Z,96561.00
2019-01-26T04:21:20.565Z,96601.30
2019-01-26T04:23:22.201Z,96613.32
2019-01-26T04:25:23.793Z,96606.98
2019-01-26T04:27:25.404Z,96589.24
2019-01-26T04:29:27.017Z,96588.66
2019-01-26T04:31:28.663Z,96594.22
2019-01-26T04:33:30.296Z,96601.77
2019-01-26T04:35:31.955Z,96602.23
2019-01-26T04:37:33.570Z,96598.85
2019-01-26T04:39:35.185Z,96592.47
2019-01-26T04:41:36.825Z,96591.19
2019-01-26T04:43:38.433Z,96595.97
2019-01-26T04:45:40.021Z,96596.27
2019-01-26T04:47:41.661Z,96600.41
2019-01-26T04:49:43.267Z,96601.19
2019-01-26T04:51:44.877Z,96586.30
2019-01-26T04:53:46.503Z,96592.10
2019-01-26T04:55:48.088Z,96589.83
2019-01-26T04:57:49.703Z,96574.38
2019-01-26T04:59:51.307Z,96569.96
2019-01-26T05:01:52.944Z,96566.45
2019-01-26T05:03:54.555Z,96573.02
2019-01-26T05:05:56.194Z,96572.63
2019-01-26T05:07:57.783Z,96572.16
2019-01-26T05:09:59.377Z,96574.59
2019-01-26T05:12:01.146Z,96576.60
2019-01-26T05:14:02.775Z,96574.77
2019-01-26T05:16:04.411Z,96557.88
2019-01-26T05:18:06.009Z,96564.74
2019-01-26T05:20:07.619Z,96554.97
2019-01-26T05:22:09.218Z,96553.47
2019-01-26T05:24:10.859Z,96557.30
2019-01-26T05:26:12.440Z,96551.87
2019-01-26T05:28:14.047Z,96549.23
2019-01-26T05:30:15.692Z,96546.25
2019-01-26T05:32:17.300Z,96545.53
2019-01-26T05:34:18.898Z,96538.70
2019-01-26T05:36:20.504Z,96539.95
2019-01-26T05:38:22.125Z,96537.81
2019-01-26T05:40:23.845Z,96538.67
2019-01-26T05:42:26.167Z,96531.04
2019-01-26T05:44:27.765Z,96526.05
2019-01-26T05:46:29.361Z,96529.98
2019-01-26T05:48:30.944Z,96532.48
2019-01-26T05:50:32.567Z,96528.18
2019-01-26T05:52:34.162Z,96523.34
2019-01-26T05:54:35.748Z,96524.48
2019-01-26T05:56:37.347Z,96523.26
2019-01-26T05:58:38.941Z,96527.31
2019-01-26T06:00:40.553Z,96519.84
2019-01-26T06:02:42.192Z,96511.50
2019-01-26T06:04:43.790Z,96514.62
2019-01-26T06:06:45.430Z,96517.14
2019-01-26T06:08:47.063Z,96516.08
2019-01-26T06:10:48.653Z,96512.45
2019-01-26T06:12:50.289Z,96509.45
2019-01-26T06:14:51.890Z,96508.65
2019-01-26T06:16:53.509Z,96514.45
2019-01-26T06:18:55.096Z,96507.97
2019-01-26T06:20:56.740Z,96506.42
2019-01-26T06:22:58.345Z,96499.09
2019-01-26T06:24:59.950Z,96508.66
2019-01-26T06:27:01.550Z,96503.28
2019-01-26T06:29:03.149Z,96504.67
2019-01-26T06:31:04.758Z,96502.53
2019-01-26T06:33:06.417Z,96504.22
2019-01-26T06:35:08.014Z,96499.39
2019-01-26T06:37:09.619Z,96501.77
2019-01-26T06:39:11.207Z,96504.32
2019-01-26T06:41:12.811Z,96510.35
2019-01-26T06:43:14.414Z,96508.39
2019-01-26T06:45:16.052Z,96504.25
2019-01-26T06:47:17.644Z,96495.87
2019-01-26T06:49:19.270Z,96495.13
2019-01-26T06:51:20.870Z,96492.59
2019-01-26T06:53:22.480Z,96496.99
2019-01-26T06:55:24.106Z,96494.02
2019-01-26T06:57:25.752Z,96498.77
2019-01-26T06:59:27.354Z,96491.61
2019-01-26T07:01:28.951Z,96492.41
2019-01-26T07:03:31.232Z,96499.66
2019-01-26T07:05:35.688Z,96483.84
2019-01-26T07:07:37.297Z,96488.44
2019-01-26T07:09:38.898Z,96484.73
2019-01-26T07:11:40.494Z,96496.19
2019-01-26T07:13:42.156Z,96501.16
2019-01-26T07:15:43.744Z,96509.17
2019-01-26T07:17:45.338Z,96507.98
2019-01-26T07:19:46.947Z,96507.30
2019-01-26T07:21:48.562Z,96509.13
2019-01-26T07:23:50.172Z,96499.40
2019-01-26T07:25:51.759Z,96497.54
2019-01-26T07:27:53.370Z,96500.79
2019-01-26T07:29:54.993Z,96503.84
2019-01-26T07:31:56.638Z,96501.02
2019-01-26T07:33:58.237Z,96502.37
2019-01-26T07:35:59.834Z,96505.38
2019-01-26T07:38:01.444Z,96500.27
2019-01-26T07:40:03.041Z,96507.86
2019-01-26T07:42:04.779Z,96511.88
2019-01-26T07:44:06.403Z,96510.34
2019-01-26T07:46:08.057Z,96513.52
2019-01-26T07:48:16.569Z,96498.41
2019-01-26T07:50:11.335Z,96500.91
2019-01-26T07:52:12.933Z,96491.81
2019-01-26T07:54:14.526Z,96491.31
2019-01-26T07:56:16.237Z,96489.30
2019-01-26T07:58:17.843Z,96491.67
2019-01-26T08:00:19.449Z,96488.83
2019-01-26T08:02:21.098Z,96493.52
2019-01-26T08:04:22.703Z,96489.92
2019-01-26T08:06:24.298Z,96485.50
2019-01-26T08:08:25.992Z,96476.73
2019-01-26T08:10:27.602Z,96482.36
2019-01-26T08:12:29.194Z,96489.02
2019-01-26T08:14:30.790Z,96494.75
2019-01-26T08:16:32.377Z,96492.61
2019-01-26T08:18:33.973Z,96480.70
2019-01-26T08:20:35.598Z,96489.24
2019-01-26T08:22:37.881Z,96484.30
2019-01-26T08:24:39.509Z,96483.20
2019-01-26T08:26:41.116Z,96482.92
2019-01-26T08:28:42.731Z,96477.98
2019-01-26T08:30:44.340Z,96471.10
2019-01-26T08:32:45.982Z,96472.28
2019-01-26T08:34:47.596Z,96468.83
2019-01-26T08:36:49.189Z,96466.08
2019-01-26T08:38:50.776Z,96466.91
2019-01-26T08:40:52.373Z,96466.13
2019-01-26T08:42:53.999Z,96466.44
2019-01-26T08:44:55.637Z,96465.88
2019-01-26T08:46:57.238Z,96469.91
2019-01-26T08:48:58.843Z,96471.08
2019-01-26T08:51:00.503Z,96469.50
2019-01-26T08:53:02.098Z,96467.23
2019-01-26T08:55:03.679Z,96471.43
2019-01-26T08:57:05.352Z,96467.95
2019-01-26T08:59:06.956Z,96470.92
2019-01-26T09:01:08.549Z,96471.87
2019-01-26T09:03:20.900Z,96465.48
2019-01-26T09:05:24.039Z,96470.60
2019-01-26T09:07:25.633Z,96466.32
2019-01-26T09:09:27.239Z,96466.11
2019-01-26T09:11:28.851Z,96465.37
2019-01-26T09:13:30.491Z,96470.92
2019-01-26T09:15:32.101Z,96467.84
2019-01-26T09:17:33.731Z,96475.09
2019-01-26T09:19:38.190Z,96465.70
2019-01-26T09:21:37.018Z,96463.88
2019-01-26T09:23:38.637Z,96462.22
2019-01-26T09:25:40.296Z,96462.46
2019-01-26T09:27:41.971Z,96461.83
2019-01-26T09:29:43.577Z,96466.48
2019-01-26T09:31:45.199Z,96463.55
2019-01-26T09:33:46.821Z,96466.86
2019-01-26T09:35:48.442Z,96462.88
2019-01-26T09:37:50.041Z,96469.78
2019-01-26T09:39:51.645Z,96462.86
2019-01-26T09:41:53.249Z,96456.54
2019-01-26T09:43:54.842Z,96458.33
2019-01-26T09:45:56.437Z,96461.49
2019-01-26T09:47:58.063Z,96461.73
2019-01-26T09:49:59.657Z,96457.72
2019-01-26T09:52:01.293Z,96466.55
2019-01-26T09:54:02.895Z,96456.50
2019-01-26T09:56:04.494Z,96460.79
2019-01-26T09:58:06.149Z,96464.30
2019-01-26T10:00:07.756Z,96451.59
2019-01-26T10:02:09.380Z,96460.95
2019-01-26T10:04:11.000Z,96461.36
2019-01-26T10:06:12.601Z,96458.48
2019-01-26T10:08:14.251Z,96458.77
2019-01-26T10:10:15.857Z,96459.39
2019-01-26T10:12:17.468Z,96459.11
2019-01-26T10:14:19.069Z,96456.95
2019-01-26T10:16:20.680Z,96452.95
2019-01-26T10:18:22.278Z,96460.67
2019-01-26T10:20:23.915Z,96463.41
2019-01-26T10:22:25.684Z,96466.94
2019-01-26T10:24:27.177Z,96467.59
2019-01-26T10:26:28.779Z,96464.81
2019-01-26T10:28:30.431Z,96456.27
2019-01-26T10:30:34.019Z,96465.68
2019-01-26T10:32:35.604Z,96464.91
2019-01-26T10:34:37.200Z,96454.13
2019-01-26T10:36:39.398Z,96452.69
2019-01-26T10:38:41.012Z,96450.84
2019-01-26T10:40:48.102Z,96452.31
2019-01-26T10:42:49.712Z,96451.16
2019-01-26T10:44:51.296Z,96455.54
2019-01-26T10:46:52.889Z,96460.09
2019-01-26T10:49:00.455Z,96456.11
2019-01-26T10:50:56.250Z,96457.96
2019-01-26T10:52:57.886Z,96457.66
2019-01-26T10:54:59.491Z,96452.69
2019-01-26T10:57:01.129Z,96450.16
2019-01-26T10:59:02.731Z,96452.43
2019-01-26T11:01:04.348Z,96449.84
2019-01-26T11:03:05.959Z,96460.58
2019-01-26T11:05:07.557Z,96455.39
2019-01-26T11:07:09.140Z,96453.06
2019-01-26T11:09:10.728Z,96452.96
2019-01-26T11:11:12.340Z,96444.22
2019-01-26T11:13:13.942Z,96446.75
2019-01-26T11:15:15.568Z,96441.45
2019-01-26T11:17:17.174Z,96433.77
2019-01-26T11:19:18.759Z,96445.59
2019-01-26T11:21:20.403Z,96437.58
2019-01-26T11:23:22.011Z,96442.64
2019-01-26T11:25:23.595Z,96436.66
2019-01-26T11:27:25.203Z,96429.18
2019-01-26T11:29:26.919Z,96417.03
2019-01-26T11:31:28.542Z,96420.64
2019-01-26T11:33:30.141Z,96419.42
2019-01-26T11:35:31.800Z,96420.83
2019-01-26T11:37:33.397Z,96399.50
2019-01-26T11:39:34.992Z,96422.09
2019-01-26T11:41:36.649Z,96417.14
2019-01-26T11:43:38.245Z,96406.03
2019-01-26T11:45:41.422Z,96409.13
2019-01-26T11:47:43.008Z,96415.81
2019-01-26T11:49:44.630Z,96411.84
2019-01-26T11:51:46.219Z,96409.41
2019-01-26T11:53:47.839Z,96400.17
2019-01-26T11:55:49.903Z,96395.27
2019-01-26T11:57:51.497Z,96402.75
2019-01-26T12:00:12.982Z,96398.55
2019-01-26T12:02:14.569Z,96396.72
2019-01-26T12:04:17.718Z,96396.05
2019-01-26T12:06:29.066Z,96401.91
2019-01-26T12:08:30.669Z,96398.25
2019-01-26T12:10:32.408Z,96390.44
2019-01-26T12:12:34.015Z,96385.53
2019-01-26T12:14:35.640Z,96385.23
2019-01-26T12:16:37.234Z,96387.91
2019-01-26T12:18:38.836Z,96377.78
2019-01-26T12:20:40.456Z,96386.36
2019-01-26T12:22:42.050Z,96387.36
2019-01-26T12:24:43.695Z,96389.95
2019-01-26T12:26:45.311Z,96381.45
2019-01-26T12:28:46.939Z,96382.25
2019-01-26T12:30:48.573Z,96380.66
2019-01-26T12:32:50.205Z,96376.38
2019-01-26T12:34:51.832Z,96376.97
2019-01-26T12:36:53.429Z,96358.63
2019-01-26T12:38:55.044Z,96375.23
2019-01-26T12:40:56.691Z,96380.30
2019-01-26T12:42:59.271Z,96377.05
2019-01-26T12:45:00.181Z,96375.09
2019-01-26T12:47:01.758Z,96373.96
2019-01-26T12:49:03.357Z,96370.25
2019-01-26T12:51:04.949Z,96367.72
2019-01-26T12:53:06.585Z,96371.52
2019-01-26T12:55:08.199Z,96371.11
2019-01-26T12:57:09.812Z,96365.91
2019-01-26T12:59:11.431Z,96362.58
2019-01-26T13:01:13.067Z,96346.11
2019-01-26T13:03:14.674Z,96365.73
2019-01-26T13:05:16.278Z,96358.61
2019-01-26T13:07:17.878Z,96364.67
2019-01-26T13:09:19.561Z,96359.66
2019-01-26T13:11:21.153Z,96358.46
2019-01-26T13:13:22.756Z,96356.92
2019-01-26T13:15:24.364Z,96354.37
2019-01-26T13:17:26.005Z,96350.75
2019-01-26T13:19:27.588Z,96349.95
2019-01-26T13:21:29.185Z,96354.31
2019-01-26T13:23:30.825Z,96347.34
2019-01-26T13:25:32.418Z,96351.44
2019-01-26T13:27:34.032Z,96352.03
2019-01-26T13:29:35.707Z,96352.56
2019-01-26T13:31:37.329Z,96351.02
2019-01-26T13:33:38.945Z,96348.61
2019-01-26T13:35:40.550Z,96346.74
2019-01-26T13:37:42.146Z,96346.92
2019-01-26T13:39:43.777Z,96341.93
2019-01-26T13:41:45.387Z,96339.88
2019-01-26T13:43:46.972Z,96345.02
2019-01-26T13:45:48.596Z,96345.88
2019-01-26T13:47:50.220Z,96342.05
2019-01-26T13:49:51.832Z,96343.77
2019-01-26T13:51:53.467Z,96342.91
2019-01-26T13:53:55.069Z,96338.64
2019-01-26T13:55:56.693Z,96336.83
2019-01-26T13:57:58.295Z,96347.01
2019-01-26T13:59:59.951Z,96345.17
2019-01-26T14:02:01.549Z,96343.33
2019-01-26T14:04:03.159Z,96346.21
2019-01-26T14:06:04.802Z,96346.15
2019-01-26T14:08:06.412Z,96346.45
2019-01-26T14:10:07.996Z,96342.20
2019-01-26T14:12:09.636Z,96343.77
2019-01-26T14:14:11.243Z,96346.19
2019-01-26T14:16:12.859Z,96346.59
2019-01-26T14:18:14.514Z,96348.67
2019-01-26T14:20:16.123Z,96346.53
2019-01-26T14:22:17.722Z,96348.17
2019-01-26T14:24:19.318Z,96341.34
2019-01-26T14:26:20.913Z,96347.73
2019-01-26T14:28:22.535Z,96344.37
2019-01-26T14:30:24.633Z,96345.05
2019-01-26T14:32:26.229Z,96333.55
2019-01-26T14:34:27.840Z,96339.11
2019-01-26T14:36:29.452Z,96337.98
2019-01-26T14:38:31.051Z,96337.73
2019-01-26T14:40:32.673Z,96336.66
2019-01-26T14:42:34.291Z,96338.27
2019-01-26T14:44:35.886Z,96332.09
2019-01-26T14:46:37.500Z,96332.98
2019-01-26T14:48:39.149Z,96339.16
2019-01-26T14:50:40.756Z,96332.03
2019-01-26T14:52:42.363Z,96324.37
2019-01-26T14:54:43.961Z,96341.98
2019-01-26T14:56:45.665Z,96336.41
2019-01-26T14:58:47.321Z,96336.50
2019-01-26T15:00:48.976Z,96340.36
2019-01-26T15:02:50.569Z,96333.05
2019-01-26T15:04:52.179Z,96330.48
2019-01-26T15:06:53.837Z,96328.78
2019-01-26T15:08:55.437Z,96335.06
2019-01-26T15:10:57.047Z,96328.56
2019-01-26T15:12:58.681Z,96333.05
2019-01-26T15:15:00.295Z,96328.16
2019-01-26T15:17:01.902Z,96328.41
2019-01-26T15:19:03.555Z,96326.16
2019-01-26T15:21:05.163Z,96328.89
2019-01-26T15:23:06.765Z,96334.57
2019-01-26T15:25:08.389Z,96333.12
2019-01-26T15:27:10.004Z,96323.70
2019-01-26T15:29:11.601Z,96332.88
2019-01-26T15:31:13.242Z,96326.69
2019-01-26T15:33:14.841Z,96329.86
2019-01-26T15:35:16.423Z,96323.89
2019-01-26T15:37:18.020Z,96330.47
2019-01-26T15:39:19.632Z,96312.27
2019-01-26T15:41:21.276Z,96334.08
2019-01-26T15:43:24.464Z,96325.13
2019-01-26T15:45:24.766Z,96331.00
2019-01-26T15:47:26.375Z,96326.55
2019-01-26T15:49:27.988Z,96330.08
2019-01-26T15:51:29.615Z,96330.45
2019-01-26T15:53:31.225Z,96330.83
2019-01-26T15:55:32.868Z,96332.44
2019-01-26T15:57:34.543Z,96329.92
2019-01-26T15:59:36.142Z,96334.77
2019-01-26T16:01:37.751Z,96333.13
2019-01-26T16:03:39.403Z,96328.23
2019-01-26T16:05:41.009Z,96338.69
2019-01-26T16:07:42.601Z,96334.33
2019-01-26T16:09:44.197Z,96328.42
2019-01-26T16:11:45.807Z,96331.33
2019-01-26T16:13:47.401Z,96333.88
2019-01-26T16:15:49.009Z,96333.03
2019-01-26T16:17:50.606Z,96337.31
2019-01-26T16:19:52.215Z,96338.70
2019-01-26T16:21:53.828Z,96336.42
2019-01-26T16:23:55.435Z,96339.62
2019-01-26T16:25:57.074Z,96335.06
2019-01-26T16:27:58.675Z,96332.83
2019-01-26T16:30:00.276Z,96334.56
2019-01-26T16:32:01.884Z,96338.77
2019-01-26T16:34:03.502Z,96335.69
2019-01-26T16:36:05.122Z,96333.48
2019-01-26T16:38:06.811Z,96335.41
2019-01-26T16:40:08.406Z,96330.58
2019-01-26T16:42:10.011Z,96331.50
2019-01-26T16:44:11.606Z,96333.12
2019-01-26T16:46:13.196Z,96331.92
2019-01-26T16:48:14.802Z,96333.31
2019-01-26T16:50:16.412Z,96333.18
2019-01-26T16:52:18.049Z,96338.02
2019-01-26T16:54:19.678Z,96328.78
2019-01-26T16:56:21.264Z,96334.48
2019-01-26T16:58:22.871Z,96334.72
2019-01-26T17:00:24.508Z,96332.13
2019-01-26T17:02:26.146Z,96333.49
2019-01-26T17:04:27.802Z,96332.12
2019-01-26T17:06:29.413Z,96329.10
2019-01-26T17:08:31.041Z,96319.77
2019-01-26T17:10:34.266Z,96326.69
2019-01-26T17:12:34.329Z,96334.09
2019-01-26T17:14:35.932Z,96327.17
2019-01-26T17:16:37.533Z,96319.16
2019-01-26T17:18:39.183Z,96312.94
2019-01-26T17:20:40.785Z,96322.97
2019-01-26T17:22:42.382Z,96319.06
2019-01-26T17:24:43.968Z,96319.42
2019-01-26T17:26:45.572Z,96323.68
2019-01-26T17:28:47.207Z,96326.43
2019-01-26T17:30:48.806Z,96329.22
2019-01-26T17:32:50.397Z,96328.95
2019-01-26T17:34:52.061Z,96327.23
2019-01-26T17:36:53.664Z,96328.99
2019-01-26T17:38:55.252Z,96327.59
2019-01-26T17:40:56.873Z,96325.86
2019-01-26T17:42:58.511Z,96326.43
2019-01-26T17:45:00.233Z,96330.76
2019-01-26T17:47:01.792Z,96333.08
2019-01-26T17:49:03.386Z,96341.63
2019-01-26T17:51:04.989Z,96332.95
2019-01-26T17:53:06.603Z,96340.70
2019-01-26T17:55:08.264Z,96332.80
2019-01-26T17:57:09.858Z,96333.77
2019-01-26T17:59:11.463Z,96332.96
2019-01-26T18:01:13.062Z,96329.33
2019-01-26T18:03:14.675Z,96328.19
2019-01-26T18:05:16.274Z,96327.37
2019-01-26T18:07:17.884Z,96329.67
2019-01-26T18:09:19.477Z,96327.41
2019-01-26T18:11:21.090Z,96328.88
2019-01-26T18:13:22.729Z,96326.45
2019-01-26T18:15:24.330Z,96331.14
2019-01-26T18:17:25.934Z,96326.00
2019-01-26T18:19:27.560Z,96328.88
2019-01-26T18:21:29.172Z,96329.54
2019-01-26T18:23:30.801Z,96325.72
2019-01-26T18:25:33.229Z,96330.44
2019-01-26T18:27:34.880Z,96332.66
2019-01-26T18:29:36.496Z,96323.64
2019-01-26T18:31:38.089Z,96319.02
2019-01-26T18:33:39.680Z,96319.81
2019-01-26T18:35:41.292Z,96321.06
2019-01-26T18:37:42.876Z,96323.83
2019-01-26T18:39:44.494Z,96323.66
2019-01-26T18:41:46.091Z,96328.16
2019-01-26T18:43:47.879Z,96326.61
2019-01-26T18:45:49.500Z,96328.89
2019-01-26T18:47:51.126Z,96328.11
2019-01-26T18:49:52.763Z,96322.41
2019-01-26T18:51:54.376Z,96322.72
2019-01-26T18:53:55.988Z,96314.29
2019-01-26T18:55:57.610Z,96319.56
2019-01-26T18:57:59.230Z,96320.65
2019-01-26T19:00:00.869Z,96319.93
2019-01-26T19:02:02.465Z,96311.20
2019-01-26T19:04:04.078Z,96317.45
2019-01-26T19:06:05.812Z,96306.86
2019-01-26T19:08:07.518Z,96305.67
2019-01-26T19:10:09.165Z,96309.80
2019-01-26T19:12:10.762Z,96308.75
2019-01-26T19:14:12.353Z,96316.55
2019-01-26T19:16:13.963Z,96309.04
2019-01-26T19:18:15.575Z,96309.77
2019-01-26T19:20:17.174Z,96298.27
2019-01-26T19:22:18.769Z,96308.21
2019-01-26T19:24:20.399Z,96308.21
2019-01-26T19:26:22.003Z,96299.70
2019-01-26T19:28:23.647Z,96300.81
2019-01-26T19:30:25.241Z,96301.83
2019-01-26T19:32:26.852Z,96303.14
2019-01-26T19:34:28.471Z,96300.37
2019-01-26T19:36:30.056Z,96302.04
2019-01-26T19:38:31.663Z,96297.02
2019-01-26T19:40:33.304Z,96290.27
2019-01-26T19:42:34.891Z,96298.84
2019-01-26T19:44:36.544Z,96300.11
2019-01-26T19:46:38.141Z,96293.23
2019-01-26T19:48:39.751Z,96288.56
2019-01-26T19:50:41.387Z,96296.67
2019-01-26T19:52:43.000Z,96291.20
2019-01-26T19:54:44.613Z,96288.45
2019-01-26T19:56:46.214Z,96281.42
2019-01-26T19:58:47.837Z,96283.77
2019-01-26T20:00:49.484Z,96246.34
2019-01-26T20:02:51.091Z,96279.52
2019-01-26T20:04:52.805Z,96283.32
2019-01-26T20:06:54.490Z,96282.00
2019-01-26T20:08:56.144Z,96281.56
2019-01-26T20:10:57.770Z,96282.17
2019-01-26T20:12:59.385Z,96277.45
2019-01-26T20:15:01.115Z,96284.64
2019-01-26T20:17:02.983Z,96280.42
2019-01-26T20:19:04.581Z,96274.47
2019-01-26T20:21:06.233Z,96278.76
2019-01-26T20:23:07.848Z,96272.37
2019-01-26T20:25:09.461Z,96271.44
2019-01-26T20:27:11.097Z,96272.31
2019-01-26T20:29:12.701Z,96279.39
2019-01-26T20:31:14.298Z,96273.75
2019-01-26T20:33:15.924Z,96269.67
2019-01-26T20:35:17.556Z,96273.41
2019-01-26T20:37:19.168Z,96269.08
2019-01-26T20:39:20.780Z,96274.67
2019-01-26T20:41:22.510Z,96270.12
2019-01-26T20:43:24.137Z,96266.86
2019-01-26T20:45:25.781Z,96264.95
2019-01-26T20:47:27.382Z,96266.87
2019-01-26T20:49:28.991Z,96242.91
2019-01-26T20:51:30.585Z,96264.56
2019-01-26T20:53:32.191Z,96258.76
2019-01-26T20:55:33.790Z,96259.19
2019-01-26T20:57:35.521Z,96259.73
2019-01-26T20:59:37.202Z,96260.62
2019-01-26T21:01:38.803Z,96260.22
2019-01-26T21:03:40.434Z,96255.12
2019-01-26T21:05:42.068Z,96257.29
2019-01-26T21:07:43.675Z,96261.02
2019-01-26T21:09:45.260Z,96261.81
2019-01-26T21:11:46.868Z,96268.20
2019-01-26T21:13:48.479Z,96261.81
2019-01-26T21:15:50.078Z,96265.30
2019-01-26T21:17:51.706Z,96265.22
2019-01-26T21:19:53.369Z,96266.59
2019-01-26T21:21:54.970Z,96261.43
2019-01-26T21:23:56.631Z,96262.22
2019-01-26T21:25:58.243Z,96254.79
2019-01-26T21:27:59.859Z,96255.00
2019-01-26T21:30:01.523Z,96252.45
2019-01-26T21:32:03.109Z,96247.02
2019-01-26T21:34:04.735Z,96248.47
2019-01-26T21:36:06.387Z,96258.66
2019-01-26T21:38:07.995Z,96246.46
2019-01-26T21:40:09.583Z,96250.29
2019-01-26T21:42:11.178Z,96243.63
2019-01-26T21:44:12.763Z,96250.41
2019-01-26T21:46:14.401Z,96250.72
2019-01-26T21:48:16.106Z,96250.22
2019-01-26T21:50:17.715Z,96257.38
2019-01-26T21:52:19.346Z,96242.58
2019-01-26T21:54:20.958Z,96248.56
2019-01-26T21:56:23.191Z,96237.29
2019-01-26T21:58:24.364Z,96239.66
2019-01-26T22:00:25.984Z,96239.44
2019-01-26T22:02:27.681Z,96236.94
2019-01-26T22:04:29.316Z,96234.78
2019-01-26T22:06:30.924Z,96245.43
2019-01-26T22:08:32.528Z,96237.34
2019-01-26T22:10:34.171Z,96240.88
2019-01-26T22:12:35.759Z,96235.34
2019-01-26T22:14:37.407Z,96239.05
2019-01-26T22:16:39.024Z,96232.78
2019-01-26T22:18:40.649Z,96235.17
2019-01-26T22:20:42.315Z,96233.53
2019-01-26T22:22:43.914Z,96237.41
2019-01-26T22:24:45.509Z,96235.41
2019-01-26T22:26:47.355Z,96234.06
2019-01-26T22:31:00.890Z,96228.37
2019-01-26T22:33:02.598Z,96229.52
2019-01-26T22:35:04.227Z,96193.81
2019-01-26T22:37:05.852Z,96229.92
2019-01-26T22:39:07.476Z,96228.50
2019-01-26T22:41:09.079Z,96220.55
2019-01-26T22:43:10.677Z,96223.00
2019-01-26T22:45:12.288Z,96219.97
2019-01-26T22:47:13.917Z,96220.87
2019-01-26T22:49:15.509Z,96215.47
2019-01-26T22:51:17.105Z,96206.62
2019-01-26T22:53:18.733Z,96211.12
2019-01-26T22:55:20.329Z,96192.89
2019-01-26T22:57:21.927Z,96206.83
2019-01-26T22:59:23.539Z,96168.84
2019-01-26T23:01:26.099Z,96206.79
2019-01-26T23:03:27.719Z,96206.23
2019-01-26T23:05:29.332Z,96203.02
2019-01-26T23:07:30.949Z,96202.12
2019-01-26T23:09:32.559Z,96201.14
2019-01-26T23:11:34.177Z,96194.64
2019-01-26T23:13:35.795Z,96187.59
2019-01-26T23:15:37.447Z,96185.99
2019-01-26T23:17:39.048Z,96180.55
2019-01-26T23:19:40.663Z,96177.92
2019-01-26T23:21:42.290Z,96175.23
2019-01-26T23:23:43.897Z,96174.67
2019-01-26T23:25:45.503Z,96169.42
2019-01-26T23:27:47.157Z,96157.89
2019-01-26T23:29:48.751Z,96156.00
2019-01-26T23:31:50.346Z,96146.34
2019-01-26T23:33:51.976Z,96147.62
2019-01-26T23:35:53.577Z,96151.72
2019-01-26T23:37:55.228Z,96140.73
2019-01-26T23:39:56.830Z,96139.24
2019-01-26T23:41:58.430Z,96142.67
2019-01-26T23:44:00.030Z,96138.03
2019-01-26T23:46:01.632Z,96131.91
2019-01-26T23:48:03.279Z,96138.63
2019-01-26T23:50:04.892Z,96142.48
2019-01-26T23:52:06.489Z,96144.91